Time;durP1;ratioP1;P1;durP2;ratioP2;P2;SDS_P1;SDS_P2;PMS_P1;PMS_P2;Temp;Humidity;BMP_temperature;BMP_pressure;BME280_temperature;BME280_humidity;BME280_pressure;Samples;Min_cycle;Max_cycle;Signal;HPM_P1;HPM_P2
2021/08/13 00:02:45;;;;;;;7.13;6.43;;;18.60;99.90;18.50;97373.00;;;;5087625;28;20578;-68
2021/08/13 00:05:35;;;;;;;7.20;6.37;;;18.60;99.90;18.40;97372.00;;;;5088962;28;20688;-68
2021/08/13 00:08:24;;;;;;;10.80;7.67;;;18.50;99.90;18.30;97373.00;;;;5083520;28;20199;-68
2021/08/13 00:11:14;;;;;;;8.57;6.23;;;18.50;99.90;18.20;97371.00;;;;5068969;28;20759;-68
2021/08/13 00:14:03;;;;;;;6.67;6.07;;;18.40;99.90;18.20;97378.00;;;;5068791;28;20207;-68
2021/08/13 00:16:51;;;;;;;8.00;6.40;;;18.40;99.90;18.20;97376.00;;;;5066112;28;20208;-68
2021/08/13 00:19:40;;;;;;;9.43;6.97;;;18.30;99.90;18.00;97366.00;;;;5068074;28;20215;-68
2021/08/13 00:22:31;;;;;;;9.00;6.63;;;18.30;99.90;18.00;97366.00;;;;5068600;28;20223;-69
2021/08/13 00:25:20;;;;;;;9.13;6.73;;;18.20;99.90;18.00;97370.00;;;;5068085;28;20192;-69
2021/08/13 00:28:09;;;;;;;8.63;7.60;;;18.20;99.90;17.90;97369.00;;;;5066811;28;20199;-69
2021/08/13 00:30:58;;;;;;;10.77;8.27;;;18.10;99.90;17.90;97376.00;;;;5067630;28;20222;-68
2021/08/13 00:33:47;;;;;;;8.00;7.23;;;18.10;99.90;18.10;97374.00;;;;5067109;28;20591;-69
2021/08/13 00:36:36;;;;;;;11.87;7.53;;;18.10;99.90;18.20;97371.00;;;;5067677;28;20199;-69
2021/08/13 00:39:26;;;;;;;7.20;6.47;;;18.10;99.90;18.10;97366.00;;;;5068363;28;20585;-68
2021/08/13 00:42:15;;;;;;;8.33;6.70;;;18.10;99.90;18.10;97370.00;;;;5068248;28;20232;-69
2021/08/13 00:45:06;;;;;;;7.60;6.80;;;18.10;99.90;18.10;97370.00;;;;5072384;28;20581;-69
2021/08/13 00:47:54;;;;;;;10.33;7.57;;;18.10;99.90;17.80;97372.00;;;;5087132;28;20195;-68
2021/08/13 00:50:43;;;;;;;7.03;6.27;;;18.10;99.90;17.90;97374.00;;;;5086026;28;20219;-68
2021/08/13 00:53:32;;;;;;;12.33;7.30;;;18.00;99.90;17.80;97362.00;;;;5086176;28;20218;-68
2021/08/13 00:56:23;;;;;;;9.80;6.90;;;17.90;99.90;17.80;97358.00;;;;5086458;28;20199;-68
2021/08/13 00:59:12;;;;;;;11.20;6.73;;;17.90;99.90;17.90;97354.00;;;;5086929;28;20234;-69
2021/08/13 01:02:02;;;;;;;8.97;6.20;;;17.90;99.90;17.90;97364.00;;;;5086913;28;20219;-68
2021/08/13 01:04:51;;;;;;;9.53;7.10;;;17.90;99.90;17.80;97362.00;;;;5087928;28;20278;-69
2021/08/13 01:07:40;;;;;;;8.67;7.07;;;17.90;99.90;17.60;97358.00;;;;5087211;28;20199;-68
2021/08/13 01:10:33;;;;;;;10.53;7.10;;;17.80;99.90;17.40;97362.00;;;;5066458;28;20196;-69
2021/08/13 01:13:32;;;;;;;10.13;7.07;;;17.80;99.90;17.50;97368.00;;;;5066570;28;20210;-68
2021/08/13 01:16:22;;;;;;;7.93;6.60;;;17.70;99.90;17.40;97363.00;;;;5065333;28;20196;-68
2021/08/13 01:19:20;;;;;;;7.40;6.13;;;17.70;99.90;17.40;97361.00;;;;5066712;28;20228;-69
2021/08/13 01:22:14;;;;;;;9.00;6.60;;;17.70;99.90;17.40;97362.00;;;;5066519;28;20223;-68
2021/08/13 01:25:07;;;;;;;8.67;6.67;;;17.60;99.90;17.60;97366.00;;;;5065979;28;20198;-69
2021/08/13 01:27:57;;;;;;;9.63;6.40;;;17.60;99.90;17.70;97363.00;;;;5066907;28;20262;-68
2021/08/13 01:30:48;;;;;;;9.33;6.93;;;17.70;99.90;17.80;97365.00;;;;5065498;28;20219;-69
2021/08/13 01:33:38;;;;;;;8.10;6.33;;;17.70;99.90;17.80;97359.00;;;;5066872;28;20207;-68
2021/08/13 01:36:30;;;;;;;8.40;6.90;;;17.70;99.90;17.80;97363.00;;;;5066808;28;20200;-68
2021/08/13 01:39:21;;;;;;;6.43;5.83;;;17.70;99.90;17.80;97354.00;;;;5065892;28;20227;-69
2021/08/13 01:42:11;;;;;;;8.43;6.63;;;17.80;99.90;17.40;97356.00;;;;5065243;28;20231;-68
2021/08/13 01:45:01;;;;;;;9.23;7.20;;;17.70;99.90;17.20;97357.00;;;;5065664;28;20198;-69
2021/08/13 01:47:52;;;;;;;8.80;7.27;;;17.60;99.90;16.90;97363.00;;;;5066967;28;20200;-68
2021/08/13 01:50:43;;;;;;;8.80;7.87;;;17.40;99.90;17.30;97363.00;;;;5085989;28;20226;-69
2021/08/13 01:53:34;;;;;;;9.93;7.47;;;17.40;99.90;17.40;97360.00;;;;5086799;28;20207;-68
2021/08/13 01:56:23;;;;;;;7.97;7.03;;;17.40;99.90;17.30;97353.00;;;;5086590;28;20328;-68
2021/08/13 01:59:12;;;;;;;7.37;6.67;;;17.40;99.90;17.20;97366.00;;;;5087211;28;20816;-69
2021/08/13 02:02:01;;;;;;;9.10;6.93;;;17.40;99.90;17.10;97377.00;;;;5086590;28;20569;-68
2021/08/13 02:04:52;;;;;;;7.93;6.57;;;17.40;99.90;17.10;97367.00;;;;5086130;28;20689;-69
2021/08/13 02:07:43;;;;;;;8.60;7.77;;;17.30;99.90;17.30;97361.00;;;;5086263;28;20202;-68
2021/08/13 02:10:34;;;;;;;10.50;7.77;;;17.30;99.90;17.20;97363.00;;;;5064337;28;20597;-69
2021/08/13 02:13:23;;;;;;;11.70;7.43;;;17.30;99.90;17.30;97368.00;;;;5065223;28;20204;-69
2021/08/13 02:16:16;;;;;;;8.87;7.83;;;17.30;99.90;17.20;97375.00;;;;5066313;28;20576;-68
2021/08/13 02:19:14;;;;;;;9.27;6.83;;;17.30;99.90;17.20;97380.00;;;;5066565;28;20611;-68
2021/08/13 02:22:04;;;;;;;8.33;7.33;;;17.30;99.90;17.20;97372.00;;;;5066951;28;20219;-69
2021/08/13 02:24:54;;;;;;;9.43;7.70;;;17.30;99.90;17.30;97373.00;;;;5091192;28;20200;-69
2021/08/13 02:27:44;;;;;;;7.70;6.90;;;17.30;99.90;17.40;97371.00;;;;5085278;28;20203;-69
2021/08/13 02:30:33;;;;;;;10.80;8.17;;;17.40;99.90;17.30;97368.00;;;;5088387;28;20198;-69
2021/08/13 02:33:22;;;;;;;8.30;7.50;;;17.40;99.90;17.00;97385.00;;;;5086058;28;20203;-68
2021/08/13 02:36:15;;;;;;;7.83;7.03;;;17.30;99.90;17.00;97367.00;;;;5085384;28;20292;-68
2021/08/13 02:39:12;;;;;;;11.23;7.37;;;17.20;99.90;16.80;97360.00;;;;5086400;28;20199;-68
2021/08/13 02:42:05;;;;;;;11.47;8.13;;;17.20;99.90;17.00;97363.00;;;;5085307;28;20701;-69
2021/08/13 02:44:58;;;;;;;8.93;7.33;;;17.10;99.90;16.90;97370.00;;;;5086448;28;20191;-68
2021/08/13 02:47:48;;;;;;;8.27;7.37;;;17.10;99.90;16.70;97363.00;;;;5086182;28;20205;-68
2021/08/13 02:50:40;;;;;;;9.33;7.43;;;17.00;99.90;16.50;97368.00;;;;5085217;28;20223;-68
2021/08/13 02:53:30;;;;;;;10.30;8.43;;;16.90;99.90;16.70;97364.00;;;;5086118;28;20199;-68
2021/08/13 02:56:20;;;;;;;10.13;7.67;;;16.90;99.90;16.80;97365.00;;;;5085414;28;20214;-68
2021/08/13 02:59:16;;;;;;;8.07;7.27;;;16.90;99.90;16.90;97366.00;;;;5085794;28;20199;-69
2021/08/13 03:02:06;;;;;;;9.17;7.57;;;16.90;99.90;17.00;97364.00;;;;5085196;28;20222;-69
2021/08/13 03:04:56;;;;;;;8.80;7.47;;;16.90;99.90;17.20;97362.00;;;;5086020;28;20203;-69
2021/08/13 03:07:45;;;;;;;9.77;6.93;;;17.00;99.90;17.10;97357.00;;;;5085500;28;20202;-68
2021/08/13 03:10:34;;;;;;;9.37;7.37;;;17.10;99.90;16.90;97364.00;;;;5065731;28;20194;-69
2021/08/13 03:13:25;;;;;;;7.77;7.07;;;17.10;99.90;16.80;97364.00;;;;5064896;28;20210;-68
2021/08/13 03:16:16;;;;;;;10.33;7.30;;;17.00;99.90;16.90;97362.00;;;;5062944;28;20940;-69
2021/08/13 03:19:06;;;;;;;8.83;7.60;;;17.00;99.90;17.10;97373.00;;;;5065542;28;20210;-69
2021/08/13 03:21:55;;;;;;;9.43;7.40;;;17.00;99.90;17.20;97377.00;;;;5064676;28;20227;-70
2021/08/13 03:24:44;;;;;;;10.63;7.97;;;17.10;99.90;17.30;97378.00;;;;5065766;28;20207;-69
2021/08/13 03:27:34;;;;;;;8.70;7.80;;;17.10;99.90;17.10;97374.00;;;;5068104;28;20210;-69
2021/08/13 03:30:23;;;;;;;9.23;7.47;;;17.10;99.90;17.30;97375.00;;;;5069281;28;20603;-72
2021/08/13 03:33:16;;;;;;;8.33;7.40;;;17.20;99.90;17.10;97383.00;;;;5067737;28;20203;-69
2021/08/13 03:36:07;;;;;;;10.67;7.77;;;17.20;99.90;17.00;97374.00;;;;5067917;28;20203;-69
2021/08/13 03:38:57;;;;;;;7.63;6.83;;;17.20;99.90;16.90;97368.00;;;;5068766;28;20196;-69
2021/08/13 03:41:46;;;;;;;9.33;7.37;;;17.10;99.90;16.80;97381.00;;;;5069009;28;20228;-68
2021/08/13 03:44:34;;;;;;;8.53;6.93;;;17.10;99.90;16.70;97377.00;;;;5068218;28;20196;-68
2021/08/13 03:47:23;;;;;;;7.83;6.93;;;17.00;99.90;16.70;97381.00;;;;5067882;28;20204;-70
2021/08/13 03:50:14;;;;;;;7.73;7.03;;;17.00;99.90;16.70;97378.00;;;;5068492;28;20543;-69
2021/08/13 03:53:03;;;;;;;9.03;7.50;;;16.90;99.90;16.70;97374.00;;;;5068000;28;20204;-70
2021/08/13 03:55:52;;;;;;;8.50;7.57;;;16.90;99.90;16.70;97380.00;;;;5068832;28;20204;-69
2021/08/13 03:58:41;;;;;;;14.43;7.33;;;16.90;99.90;16.60;97376.00;;;;5068404;28;20578;-69
2021/08/13 04:01:31;;;;;;;10.83;8.20;;;16.90;99.90;16.80;97378.00;;;;5078287;28;20222;-69
2021/08/13 04:04:19;;;;;;;10.37;8.27;;;16.90;99.90;16.90;97374.00;;;;5086783;28;20205;-71
2021/08/13 04:07:10;;;;;;;9.17;8.27;;;16.90;99.90;16.90;97374.00;;;;5087092;28;20205;-69
2021/08/13 04:09:58;;;;;;;11.00;8.90;;;16.90;99.90;16.60;97380.00;;;;5088419;28;20203;-70
2021/08/13 04:12:47;;;;;;;11.37;8.10;;;16.90;99.90;16.70;97378.00;;;;5087087;28;20199;-70
2021/08/13 04:15:38;;;;;;;8.70;7.57;;;16.90;99.90;16.80;97375.00;;;;5087297;28;20199;-71
2021/08/13 04:18:27;;;;;;;10.53;8.40;;;16.90;99.90;17.10;97378.00;;;;5088179;28;20203;-70
2021/08/13 04:21:16;;;;;;;10.47;8.77;;;16.90;99.90;17.30;97377.00;;;;5087476;28;20603;-70
2021/08/13 04:24:06;;;;;;;15.17;8.10;;;17.00;99.90;17.40;97369.00;;;;5087419;28;20207;-70
2021/08/13 04:26:55;;;;;;;10.17;7.77;;;17.10;99.90;17.20;97375.00;;;;5087127;28;20568;-70
2021/08/13 04:29:44;;;;;;;8.57;7.67;;;17.20;99.90;17.00;97367.00;;;;5087767;28;20195;-70
2021/08/13 04:32:33;;;;;;;8.80;7.90;;;17.20;99.90;17.10;97370.00;;;;5073652;28;20230;-71
2021/08/13 04:35:22;;;;;;;9.70;7.17;;;17.20;99.90;17.30;97375.00;;;;5073915;28;20200;-70
2021/08/13 04:38:11;;;;;;;8.67;7.40;;;17.20;99.90;17.60;97386.00;;;;5087851;28;20199;-71
2021/08/13 04:41:01;;;;;;;8.97;8.07;;;17.30;99.90;17.50;97366.00;;;;5086369;28;20238;-70
2021/08/13 04:43:50;;;;;;;10.13;8.17;;;17.30;99.90;17.40;97367.00;;;;5086406;28;20191;-70
2021/08/13 04:46:39;;;;;;;10.87;8.03;;;17.40;99.90;17.20;97366.00;;;;5086262;28;20205;-71
2021/08/13 04:49:28;;;;;;;8.30;7.17;;;17.40;99.90;17.00;97365.00;;;;5087945;28;20210;-70
2021/08/13 04:52:18;;;;;;;10.90;7.30;;;17.30;99.90;16.80;97379.00;;;;5085643;28;20219;-71
2021/08/13 04:55:08;;;;;;;14.13;7.93;;;17.20;99.90;17.00;97378.00;;;;5087306;28;20203;-69
2021/08/13 04:57:58;;;;;;;9.40;8.40;;;17.20;99.90;17.10;97372.00;;;;5086417;28;20688;-69
2021/08/13 05:00:48;;;;;;;7.50;6.80;;;17.20;99.90;17.20;97369.00;;;;5086672;28;20219;-70
2021/08/13 05:03:37;;;;;;;8.57;7.47;;;17.30;99.90;17.30;97375.00;;;;5085735;28;20203;-70
2021/08/13 05:06:25;;;;;;;9.23;8.30;;;17.30;99.90;17.40;97375.00;;;;5085676;28;20222;-70
2021/08/13 05:09:14;;;;;;;12.47;7.17;;;17.30;99.90;17.50;97384.00;;;;5085625;28;20195;-70
2021/08/13 05:12:04;;;;;;;8.70;7.80;;;17.40;99.90;17.50;97383.00;;;;5085809;28;20222;-71
2021/08/13 05:14:54;;;;;;;11.33;7.47;;;17.50;99.90;17.40;97381.00;;;;5085977;28;20195;-70
2021/08/13 05:17:44;;;;;;;9.40;8.50;;;17.50;99.90;17.30;97382.00;;;;5087082;28;20209;-70
2021/08/13 05:20:32;;;;;;;9.00;7.10;;;17.50;99.90;17.40;97380.00;;;;5087749;28;20203;-70
2021/08/13 05:23:22;;;;;;;7.90;7.10;;;17.50;99.90;17.50;97387.00;;;;5087645;28;20203;-70
2021/08/13 05:26:11;;;;;;;8.77;7.87;;;17.50;99.90;17.80;97377.00;;;;5087289;28;20207;-71
2021/08/13 05:28:59;;;;;;;11.13;8.27;;;17.70;99.90;18.10;97384.00;;;;5087316;28;20211;-70
2021/08/13 05:31:50;;;;;;;8.23;7.10;;;17.80;99.90;18.20;97392.00;;;;5080153;28;20728;-72
2021/08/13 05:34:39;;;;;;;10.30;7.33;;;17.90;99.90;18.30;97391.00;;;;5086215;28;20203;-73
2021/08/13 05:37:27;;;;;;;8.93;7.90;;;18.10;99.90;18.40;97379.00;;;;5086553;28;20696;-70
2021/08/13 05:40:16;;;;;;;9.10;7.17;;;18.20;99.90;18.50;97385.00;;;;5086290;28;20203;-71
2021/08/13 05:43:05;;;;;;;8.63;7.73;;;18.30;99.90;18.70;97383.00;;;;5086579;28;20210;-72
2021/08/13 05:45:54;;;;;;;10.17;7.07;;;18.50;99.90;18.70;97387.00;;;;5080155;28;20673;-70
2021/08/13 05:48:44;;;;;;;13.73;8.47;;;18.60;99.90;18.70;97387.00;;;;5079194;28;20203;-69
2021/08/13 05:51:33;;;;;;;10.60;8.50;;;18.60;99.90;19.00;97388.00;;;;5079337;28;20211;-71
2021/08/13 05:54:22;;;;;;;9.63;7.90;;;18.70;99.90;19.00;97385.00;;;;5086181;28;20207;-70
2021/08/13 05:57:11;;;;;;;9.50;7.80;;;18.80;99.90;19.00;97395.00;;;;5086387;28;20199;-69
2021/08/13 06:00:00;;;;;;;10.27;7.37;;;18.90;99.90;19.10;97391.00;;;;5085307;28;20619;-71
2021/08/13 06:02:58;;;;;;;11.70;7.93;;;19.00;99.90;19.40;97385.00;;;;5085459;28;20226;-72
2021/08/13 06:05:48;;;;;;;8.90;8.00;;;19.10;99.90;19.60;97385.00;;;;5085375;28;20207;-69
2021/08/13 06:08:37;;;;;;;12.50;9.30;;;19.30;99.90;19.90;97388.00;;;;5085657;28;20201;-70
2021/08/13 06:11:26;;;;;;;14.23;9.83;;;19.50;99.90;20.20;97384.00;;;;5086234;28;20226;-71
2021/08/13 06:14:15;;;;;;;10.97;9.10;;;19.70;99.90;20.60;97385.00;;;;5084863;28;20196;-71
2021/08/13 06:17:04;;;;;;;12.80;9.20;;;19.90;99.90;20.80;97401.00;;;;5088377;28;20217;-72
2021/08/13 06:19:53;;;;;;;19.67;9.40;;;20.20;99.90;21.10;97404.00;;;;5065857;28;20196;-71
2021/08/13 06:22:43;;;;;;;10.57;8.57;;;20.40;99.90;21.30;97409.00;;;;5078459;28;20231;-72
2021/08/13 06:25:32;;;;;;;11.90;9.73;;;20.60;99.90;21.40;97393.00;;;;5086015;28;20233;-71
2021/08/13 06:28:21;;;;;;;10.13;8.67;;;20.80;99.90;21.30;97400.00;;;;5084808;28;20214;-71
2021/08/13 06:31:10;;;;;;;9.13;7.90;;;21.00;99.90;21.40;97395.00;;;;5084916;28;20589;-71
2021/08/13 06:33:59;;;;;;;10.10;8.10;;;21.10;99.90;21.40;97402.00;;;;5095429;28;20214;-71
2021/08/13 06:36:48;;;;;;;9.70;8.37;;;21.20;99.90;21.60;97404.00;;;;5104667;28;20199;-70
2021/08/13 06:39:38;;;;;;;13.00;9.30;;;21.30;99.90;21.70;97401.00;;;;5105491;28;20557;-72
2021/08/13 06:42:28;;;;;;;11.20;9.83;;;21.40;99.90;21.90;97398.00;;;;5104480;28;20222;-70
2021/08/13 06:45:19;;;;;;;10.17;8.53;;;21.50;99.90;22.20;97393.00;;;;5097724;28;20209;-71
2021/08/13 06:48:08;;;;;;;11.73;8.70;;;21.70;99.90;22.40;97395.00;;;;5083634;28;20195;-70
2021/08/13 06:50:58;;;;;;;11.33;9.33;;;21.90;99.90;22.60;97412.00;;;;5095341;28;20320;-70
2021/08/13 06:53:47;;;;;;;11.67;8.90;;;22.10;99.90;23.00;97410.00;;;;5102733;28;20267;-71
2021/08/13 06:56:37;;;;;;;12.70;9.20;;;22.40;99.90;22.80;97417.00;;;;5105337;28;20198;-71
2021/08/13 06:59:26;;;;;;;9.90;8.40;;;22.50;99.90;23.00;97401.00;;;;5095011;28;20202;-71
2021/08/13 07:02:15;;;;;;;10.77;8.47;;;22.80;99.90;23.10;97392.00;;;;5076962;28;20231;-71
2021/08/13 07:05:05;;;;;;;13.17;8.87;;;22.80;99.90;23.40;97391.00;;;;5088894;28;20226;-72
2021/08/13 07:07:57;;;;;;;13.60;9.33;;;23.00;99.90;23.60;97383.00;;;;5088932;28;20203;-70
2021/08/13 07:10:46;;;;;;;11.73;8.03;;;23.10;99.90;23.70;97378.00;;;;5080098;28;20230;-72
2021/08/13 07:13:36;;;;;;;12.00;9.27;;;23.20;99.90;23.80;97380.00;;;;5068575;28;20261;-71
2021/08/13 07:16:25;;;;;;;13.87;8.10;;;23.40;99.90;24.00;97378.00;;;;5085141;28;20576;-71
2021/08/13 07:19:14;;;;;;;11.53;8.97;;;23.50;99.90;24.40;97384.00;;;;5087602;28;20207;-71
2021/08/13 07:22:04;;;;;;;11.30;8.67;;;23.60;99.90;24.10;97390.00;;;;5078969;28;20302;-73
2021/08/13 07:24:53;;;;;;;11.43;8.67;;;23.80;99.90;24.20;97390.00;;;;5072487;28;20211;-71
2021/08/13 07:27:42;;;;;;;11.33;8.40;;;23.90;99.90;24.30;97395.00;;;;5078421;28;20256;-73
2021/08/13 07:30:32;;;;;;;9.47;8.13;;;24.00;99.90;24.30;97396.00;;;;5088368;28;20278;-71
2021/08/13 07:33:21;;;;;;;9.90;7.77;;;24.10;99.90;24.60;97405.00;;;;5068855;28;20195;-71
2021/08/13 07:36:10;;;;;;;10.67;8.30;;;24.20;99.90;24.70;97406.00;;;;5069113;28;20716;-71
2021/08/13 07:38:59;;;;;;;8.90;8.00;;;24.40;99.90;24.80;97409.00;;;;5068634;28;20203;-71
2021/08/13 07:41:47;;;;;;;12.47;9.17;;;24.40;99.90;25.00;97400.00;;;;5087119;28;20223;-71
2021/08/13 07:44:36;;;;;;;11.07;7.77;;;24.60;99.90;25.10;97404.00;;;;5089013;28;20192;-72
2021/08/13 07:47:32;;;;;;;10.47;8.07;;;24.70;99.90;25.30;97401.00;;;;5109569;28;20528;-72
2021/08/13 07:50:21;;;;;;;10.77;7.67;;;24.90;99.90;25.50;97399.00;;;;5103682;28;20211;-72
2021/08/13 07:53:12;;;;;;;10.83;7.93;;;25.00;99.90;25.70;97405.00;;;;5087696;28;20207;-71
2021/08/13 07:56:01;;;;;;;11.23;8.80;;;25.20;99.90;25.80;97404.00;;;;5087797;28;20224;-71
2021/08/13 07:58:50;;;;;;;8.03;7.23;;;25.40;99.90;26.10;97411.00;;;;5068061;28;20208;-71
2021/08/13 08:01:39;;;;;;;10.40;8.13;;;25.50;99.90;26.50;97410.00;;;;5067483;28;20226;-71
2021/08/13 08:04:29;;;;;;;10.13;7.10;;;25.70;99.90;26.60;97412.00;;;;5069255;28;20205;-71
2021/08/13 08:07:18;;;;;;;10.83;7.87;;;25.90;99.90;26.70;97410.00;;;;5069041;28;20207;-71
2021/08/13 08:10:08;;;;;;;10.97;7.23;;;26.10;99.90;27.00;97405.00;;;;5086731;28;20208;-71
2021/08/13 08:12:56;;;;;;;9.57;6.87;;;26.30;99.90;27.30;97409.00;;;;5087543;28;20192;-69
2021/08/13 08:15:46;;;;;;;10.87;7.57;;;26.50;99.90;27.40;97414.00;;;;5086162;28;20210;-70
2021/08/13 08:18:35;;;;;;;8.43;7.17;;;26.70;99.90;27.40;97407.00;;;;5080102;28;20202;-71
2021/08/13 08:21:25;;;;;;;10.83;7.70;;;26.90;99.90;27.70;97413.00;;;;5086911;28;20304;-70
2021/08/13 08:24:14;;;;;;;9.00;7.67;;;27.00;99.90;27.90;97408.00;;;;5083892;28;20206;-71
2021/08/13 08:27:04;;;;;;;7.80;6.73;;;27.20;99.90;28.00;97407.00;;;;5077417;28;20204;-70
2021/08/13 08:29:53;;;;;;;8.80;7.30;;;27.30;99.90;28.10;97404.00;;;;5067439;28;20204;-72
2021/08/13 08:32:42;;;;;;;9.40;7.53;;;27.50;99.90;28.00;97402.00;;;;5085033;28;20222;-71
2021/08/13 08:35:30;;;;;;;7.73;6.93;;;27.50;99.90;28.30;97412.00;;;;5085486;28;20196;-69
2021/08/13 08:38:21;;;;;;;9.30;6.77;;;27.70;99.90;28.30;97399.00;;;;5077825;28;20817;-69
2021/08/13 08:41:10;;;;;;;8.10;6.73;;;27.80;99.90;28.30;97404.00;;;;5075336;28;20220;-71
2021/08/13 08:43:59;;;;;;;7.47;6.63;;;27.80;99.90;28.70;97405.00;;;;5098680;28;20235;-69
2021/08/13 08:46:48;;;;;;;8.63;7.07;;;27.90;99.90;28.60;97410.00;;;;5106529;28;20207;-69
2021/08/13 08:49:41;;;;;;;9.47;7.70;;;28.10;99.90;28.60;97417.00;;;;5107568;28;20476;-69
2021/08/13 08:52:31;;;;;;;10.10;7.90;;;28.10;99.90;28.70;97412.00;;;;5083663;28;20718;-69
2021/08/13 08:55:22;;;;;;;8.50;7.13;;;28.20;99.90;28.90;97424.00;;;;5065686;28;20199;-69
2021/08/13 08:58:12;;;;;;;12.37;8.20;;;28.30;99.90;28.90;97425.00;;;;5066452;28;20207;-71
2021/08/13 09:01:01;;;;;;;8.57;7.20;;;28.40;99.90;28.90;97425.00;;;;5065460;28;20222;-72
2021/08/13 09:03:50;;;;;;;11.97;7.47;;;28.40;99.90;29.10;97429.00;;;;5066282;28;20307;-71
2021/08/13 09:06:41;;;;;;;13.53;8.80;;;28.50;99.90;29.20;97430.00;;;;5066519;28;20205;-70
2021/08/13 09:09:30;;;;;;;9.93;7.77;;;28.60;99.90;29.50;97423.00;;;;5066223;28;20725;-70
2021/08/13 09:12:21;;;;;;;9.97;7.37;;;28.70;99.90;29.70;97430.00;;;;5066075;28;20219;-71
2021/08/13 09:15:30;;;;;;;11.33;7.33;;;28.90;99.90;29.70;97431.00;;;;5093129;28;20604;-69
2021/08/13 09:18:21;;;;;;;8.25;7.38;;;29.00;99.90;29.80;97442.00;;;;5075601;28;20204;-71
2021/08/13 09:21:13;;;;;;;8.97;7.47;;;29.10;99.90;29.80;97438.00;;;;5085937;28;20222;-69
2021/08/13 09:24:09;;;;;;;9.47;7.00;;;29.20;99.90;30.20;97427.00;;;;5085242;28;20218;-69
2021/08/13 09:27:17;;;;;;;8.25;6.82;;;29.40;99.90;30.30;97430.00;;;;5085414;28;20578;-68
2021/08/13 09:30:18;;;;;;;6.27;5.67;;;29.50;99.90;30.80;97432.00;;;;5084914;28;20204;-71
2021/08/13 09:33:08;;;;;;;7.53;6.70;;;29.80;99.90;30.90;97425.00;;;;5067700;28;20210;-69
2021/08/13 09:36:01;;;;;;;7.65;6.60;;;30.00;99.90;31.10;97434.00;;;;5073679;28;20217;-70
2021/08/13 09:39:03;;;;;;;10.15;7.32;;;30.20;99.90;30.50;97446.00;;;;5081365;28;20676;-70
2021/08/13 09:41:54;;;;;;;7.40;6.70;;;30.20;99.90;31.00;97420.00;;;;5085599;28;20232;-72
2021/08/13 09:44:43;;;;;;;7.90;6.78;;;30.20;99.90;30.80;97441.00;;;;5085659;28;20223;-70
2021/08/13 09:47:42;;;;;;;7.07;6.35;;;30.30;99.90;30.60;97442.00;;;;5085876;28;20209;-69
2021/08/13 09:50:37;;;;;;;7.35;6.65;;;30.20;99.90;30.00;97454.00;;;;5065225;28;20216;-69
2021/08/13 09:53:26;;;;;;;7.03;6.32;;;30.10;99.90;30.10;97428.00;;;;5076951;28;20209;-69
2021/08/13 09:56:26;;;;;;;5.78;5.28;;;29.90;99.90;30.90;97416.00;;;;5083781;28;20213;-71
2021/08/13 09:59:20;;;;;;;6.55;5.95;;;30.00;99.90;31.10;97419.00;;;;5086613;28;20222;-68
2021/08/13 10:02:13;;;;;;;9.30;7.03;;;30.20;99.90;31.40;97422.00;;;;5086026;28;20225;-68
2021/08/13 10:05:18;;;;;;;6.93;6.18;;;30.50;98.70;31.70;97418.00;;;;5084649;28;20197;-69
2021/08/13 10:08:08;;;;;;;6.90;6.30;;;30.70;98.10;32.00;97420.00;;;;5083093;28;20209;-70
2021/08/13 10:11:13;;;;;;;6.95;6.15;;;31.00;97.40;32.20;97413.00;;;;5071550;28;20624;-71
2021/08/13 10:14:02;;;;;;;7.90;6.72;;;31.20;96.60;32.60;97414.00;;;;5082337;28;20197;-71
2021/08/13 10:16:51;;;;;;;7.72;6.90;;;31.50;97.60;32.50;97409.00;;;;5084335;28;20312;-68
2021/08/13 10:19:41;;;;;;;8.45;7.65;;;31.60;95.50;32.50;97409.00;;;;5084698;28;20576;-69
2021/08/13 10:22:31;;;;;;;10.77;8.05;;;31.70;96.00;33.00;97411.00;;;;5065385;28;20229;-71
2021/08/13 10:25:21;;;;;;;9.95;7.57;;;31.90;95.50;33.20;97409.00;;;;5084476;28;20218;-69
2021/08/13 10:28:10;;;;;;;8.75;6.97;;;32.10;95.10;33.30;97402.00;;;;5085296;28;20212;-68
2021/08/13 10:31:00;;;;;;;7.97;6.60;;;32.30;94.20;33.30;97412.00;;;;5083916;28;20249;-68
2021/08/13 10:33:50;;;;;;;10.63;7.22;;;32.40;92.40;33.30;97403.00;;;;5064386;28;20223;-68
2021/08/13 10:36:41;;;;;;;11.55;7.20;;;32.50;89.70;33.20;97399.00;;;;5064945;28;20553;-68
2021/08/13 10:39:32;;;;;;;10.43;7.55;;;32.60;88.90;33.40;97401.00;;;;5064291;28;20206;-68
2021/08/13 10:42:23;;;;;;;10.18;7.03;;;32.70;89.40;33.80;97400.00;;;;5064357;28;20716;-69
2021/08/13 10:45:21;;;;;;;9.55;6.85;;;32.80;88.30;34.00;97392.00;;;;5045881;28;20233;-71
2021/08/13 10:48:15;;;;;;;14.18;6.75;;;33.00;87.70;34.40;97392.00;;;;5063677;28;20201;-70
2021/08/13 10:51:04;;;;;;;7.25;6.15;;;33.20;88.30;34.50;97383.00;;;;5063866;28;20744;-69
2021/08/13 10:54:05;;;;;;;7.70;6.88;;;33.50;88.70;34.70;97388.00;;;;5064538;28;20194;-69
2021/08/13 10:56:58;;;;;;;7.97;7.18;;;33.60;86.00;34.30;97376.00;;;;5065010;28;20309;-69
2021/08/13 10:59:57;;;;;;;8.80;6.72;;;33.80;82.50;34.80;97383.00;;;;5065741;28;20203;-69
2021/08/13 11:03:20;;;;;;;6.65;5.93;;;33.90;80.40;35.10;97378.00;;;;5057648;28;20215;-70
2021/08/13 11:06:09;;;;;;;9.25;7.05;;;34.00;81.30;33.20;97369.00;;;;5052126;28;20700;-72
2021/08/13 11:08:59;;;;;;;10.18;7.03;;;34.00;77.60;33.50;97371.00;;;;5063651;28;20196;-74
2021/08/13 11:12:16;;;;;;;8.50;6.63;;;33.80;78.20;33.50;97369.00;;;;5063813;28;20702;-70
2021/08/13 11:15:05;;;;;;;9.13;6.78;;;33.80;77.60;32.90;97367.00;;;;5063708;28;20195;-69
2021/08/13 11:17:55;;;;;;;9.95;6.82;;;33.40;76.80;32.70;97357.00;;;;5045163;28;20790;-68
2021/08/13 11:20:45;;;;;;;7.20;5.28;;;33.10;74.50;33.90;97358.00;;;;5059272;28;20226;-69
2021/08/13 11:23:57;;;;;;;6.65;6.05;;;33.10;75.10;34.90;97354.00;;;;5063372;28;20679;-68
2021/08/13 11:27:12;;;;;;;6.57;5.95;;;33.40;77.00;34.70;97356.00;;;;5052260;28;20582;-69
2021/08/13 11:30:04;;;;;;;8.07;6.25;;;33.90;70.00;34.90;97356.00;;;;5063226;28;20204;-69
2021/08/13 11:32:53;;;;;;;6.97;5.88;;;34.20;73.20;35.40;97356.00;;;;5064067;28;20195;-68
2021/08/13 11:35:42;;;;;;;8.50;6.85;;;34.40;72.20;36.10;97358.00;;;;5065900;28;20266;-68
2021/08/13 11:39:01;;;;;;;8.98;6.05;;;34.80;72.00;35.30;97363.00;;;;5064369;28;20938;-68
2021/08/13 11:41:50;;;;;;;9.45;6.25;;;35.10;70.60;36.00;97362.00;;;;5064556;28;20227;-70
2021/08/13 11:44:39;;;;;;;7.10;6.50;;;35.30;71.20;35.60;97354.00;;;;5061436;28;20721;-69
2021/08/13 11:47:30;;;;;;;11.73;6.57;;;35.20;66.70;36.10;97360.00;;;;5067141;28;20196;-70
2021/08/13 11:50:21;;;;;;;9.45;6.20;;;35.40;68.10;36.60;97350.00;;;;5067099;28;20199;-69
2021/08/13 11:53:10;;;;;;;7.55;6.85;;;35.60;68.80;36.80;97354.00;;;;5067382;28;20206;-70
2021/08/13 11:55:59;;;;;;;6.28;5.68;;;35.80;68.90;36.90;97359.00;;;;5067170;28;20192;-67
2021/08/13 11:59:01;;;;;;;6.53;5.93;;;36.00;67.40;36.30;97359.00;;;;5068177;28;20210;-70
2021/08/13 12:01:52;;;;;;;8.27;7.07;;;35.90;67.10;36.80;97387.00;;;;5067343;28;20230;-68
2021/08/13 12:04:42;;;;;;;7.25;6.43;;;36.00;67.50;35.60;97417.00;;;;5059378;28;20207;-66
2021/08/13 12:07:31;;;;;;;7.03;6.15;;;35.60;67.30;34.80;97412.00;;;;5054869;28;20200;-66
2021/08/13 12:10:21;;;;;;;6.57;5.97;;;35.20;67.70;34.10;97416.00;;;;5047186;28;20193;-69
2021/08/13 12:13:11;;;;;;;9.65;5.97;;;34.60;67.70;33.50;97411.00;;;;5065740;28;20200;-66
2021/08/13 12:16:02;;;;;;;6.15;5.53;;;34.10;67.50;33.20;97405.00;;;;5068202;28;21174;-66
2021/08/13 12:18:52;;;;;;;5.70;5.20;;;33.70;68.50;32.90;97404.00;;;;5052933;28;20215;-69
2021/08/13 12:21:58;;;;;;;5.85;5.35;;;33.20;69.50;31.90;97417.00;;;;5067593;28;20223;-69
2021/08/13 12:24:46;;;;;;;6.70;5.05;;;32.70;71.50;30.60;97407.00;;;;5068071;28;20212;-70
2021/08/13 12:27:38;;;;;;;6.22;5.45;;;31.90;73.10;29.40;97414.00;;;;5067662;28;20210;-71
2021/08/13 12:30:28;;;;;;;7.35;6.10;;;31.00;77.20;28.90;97415.00;;;;5067410;28;20210;-70
2021/08/13 12:33:18;;;;;;;7.88;5.82;;;30.20;87.80;28.00;97415.00;;;;5065461;28;20205;-69
2021/08/13 12:36:16;;;;;;;6.10;5.40;;;29.60;93.90;27.40;97412.00;;;;5065473;28;20230;-69
2021/08/13 12:39:06;;;;;;;6.83;6.00;;;28.70;98.60;26.50;97429.00;;;;5062102;28;20985;-69